Time;durP1;ratioP1;P1;durP2;ratioP2;P2;SDS_P1;SDS_P2;PMS_P1;PMS_P2;Temp;Humidity;BMP_temperature;BMP_pressure;BME280_temperature;BME280_humidity;BME280_pressure;Samples;Min_cycle;Max_cycle;Signal;HPM_P1;HPM_P2
2023/10/02 00:04:24;;;;;;;15.60;7.50;;;;;;;14.61;80.80;99134.11;78034;1295;3053459;-71
2023/10/02 00:06:23;;;;;;;13.60;6.20;;;;;;;14.63;81.13;99133.61;78307;1299;3049811;-67
2023/10/02 00:08:51;;;;;;;18.40;6.40;;;;;;;14.92;79.81;99135.95;79279;1300;3013120;-69
2023/10/02 00:12:21;;;;;;;18.80;6.40;;;;;;;15.00;78.96;99132.16;79227;1298;3012439;-69
2023/10/02 00:14:27;;;;;;;16.80;5.40;;;;;;;14.84;79.13;99124.85;78207;1295;3051047;-67
2023/10/02 00:17:03;;;;;;;15.20;5.10;;;;;;;14.63;79.67;99140.31;78096;1297;3056657;-65
2023/10/02 00:19:39;;;;;;;12.80;4.90;;;;;;;14.42;80.64;99124.61;78145;1296;3047472;-63
2023/10/02 00:22:09;;;;;;;17.80;4.50;;;;;;;14.46;80.82;99130.29;79324;1295;3011613;-66
2023/10/02 00:24:39;;;;;;;10.70;4.40;;;;;;;14.86;79.18;99124.72;78086;1299;3050807;-64
2023/10/02 00:27:08;;;;;;;12.70;4.60;;;;;;;14.92;78.29;99132.97;79409;1300;3013551;-65
2023/10/02 00:29:52;;;;;;;11.60;4.30;;;;;;;14.80;78.51;99128.89;78234;1300;3026271;-65
2023/10/02 00:32:20;;;;;;;15.70;4.90;;;;;;;14.51;79.63;99128.41;78087;1298;3068493;-65
2023/10/02 00:34:47;;;;;;;10.10;4.90;;;;;;;14.33;80.09;99133.60;79184;1296;3013140;-63
2023/10/02 00:37:13;;;;;;;10.80;3.70;;;;;;;14.23;80.48;99134.59;79150;1295;3012833;-68
2023/10/02 00:39:41;;;;;;;8.40;3.50;;;;;;;14.14;80.99;99139.02;78094;1297;3027169;-68
2023/10/02 00:44:51;;;;;;;6.50;3.70;;;;;;;14.70;78.53;99132.85;78087;1300;3053472;-73
2023/10/02 00:47:38;;;;;;;6.90;3.10;;;;;;;14.47;78.88;99142.17;79223;1297;3011725;-67
2023/10/02 00:50:10;;;;;;;11.20;3.80;;;;;;;14.29;79.58;99137.84;78074;1299;3050648;-68
2023/10/02 00:52:41;;;;;;;12.80;4.20;;;;;;;14.17;79.98;99142.98;79230;1295;3011733;-66
2023/10/02 00:55:12;;;;;;;9.40;3.40;;;;;;;14.04;80.69;99138.97;78182;1298;3048459;-67
2023/10/02 00:57:39;;;;;;;11.70;3.20;;;;;;;14.46;79.34;99140.64;79520;1300;3013466;-71
2023/10/02 01:00:22;;;;;;;11.80;3.50;;;;;;;14.47;78.85;99145.66;78888;1297;3011570;-73
2023/10/02 01:02:51;;;;;;;10.80;3.90;;;;;;;14.34;79.21;99143.52;78347;1300;3051955;-65
2023/10/02 01:05:21;;;;;;;9.50;3.60;;;;;;;14.20;79.65;99139.23;79650;1300;3012966;-63
2023/10/02 01:07:53;;;;;;;10.50;3.50;;;;;;;14.03;80.25;99145.89;78068;1296;3050042;-72
2023/10/02 01:10:23;;;;;;;7.50;3.00;;;;;;;13.98;80.74;99150.71;79259;1297;3012097;-69
2023/10/02 01:12:53;;;;;;;9.30;3.50;;;;;;;14.34;79.34;99145.67;78159;1299;3049597;-68
2023/10/02 01:15:20;;;;;;;11.30;3.00;;;;;;;14.44;78.78;99143.10;79487;1296;3013231;-63
2023/10/02 01:17:50;;;;;;;14.90;4.20;;;;;;;14.27;79.15;99149.39;78468;1300;3026290;-66
2023/10/02 01:20:33;;;;;;;8.30;3.90;;;;;;;14.10;79.50;99155.17;79273;1299;3013702;-70
2023/10/02 01:23:16;;;;;;;10.30;3.20;;;;;;;13.93;80.27;99163.42;78337;1300;3052577;-65
2023/10/02 01:25:46;;;;;;;8.50;3.20;;;;;;;13.75;81.19;99154.24;78109;1297;3068395;-63
2023/10/02 01:28:25;;;;;;;9.70;3.00;;;;;;;13.70;81.62;99157.30;79518;1295;3013856;-71
2023/10/02 01:30:55;;;;;;;5.80;2.70;;;;;;;14.25;79.45;99156.46;78117;1295;3049963;-66
2023/10/02 01:33:22;;;;;;;7.90;3.10;;;;;;;14.32;78.73;99158.02;79290;1297;3011863;-65
2023/10/02 01:35:53;;;;;;;13.00;3.40;;;;;;;14.24;78.58;99166.88;78782;1297;3012377;-66
2023/10/02 01:38:29;;;;;;;7.10;3.20;;;;;;;14.03;79.54;99162.59;79244;1300;3013839;-62
2023/10/02 01:41:04;;;;;;;10.50;3.40;;;;;;;13.81;80.40;99166.98;78099;1297;3053339;-64
2023/10/02 01:43:40;;;;;;;7.80;2.70;;;;;;;13.61;81.31;99171.33;78186;1300;3069540;-69
2023/10/02 01:46:11;;;;;;;9.60;2.60;;;;;;;13.57;81.72;99169.89;77987;1296;3051679;-64
2023/10/02 01:48:40;;;;;;;7.10;3.20;;;;;;;13.99;80.14;99170.14;79422;1296;3013274;-62
2023/10/02 01:51:25;;;;;;;10.70;3.20;;;;;;;14.06;79.43;99167.46;78034;1299;3053352;-67
2023/10/02 01:53:54;;;;;;;6.90;3.00;;;;;;;13.98;79.56;99171.77;78054;1299;3050130;-67
2023/10/02 01:56:29;;;;;;;7.30;2.80;;;;;;;13.78;80.30;99166.53;79443;1297;3013387;-65
2023/10/02 01:59:11;;;;;;;7.00;2.90;;;;;;;13.71;80.51;99172.48;78247;1297;3069239;-66
2023/10/02 02:01:52;;;;;;;8.70;2.70;;;;;;;13.49;81.47;99178.42;78162;1301;3050626;-63
2023/10/02 02:04:24;;;;;;;9.90;2.90;;;;;;;13.65;81.43;99173.33;78195;1300;3056580;-64
2023/10/02 02:06:51;;;;;;;9.60;2.70;;;;;;;13.84;79.84;99171.33;79583;1296;3011395;-62
2023/10/02 02:09:23;;;;;;;5.40;2.90;;;;;;;13.84;79.80;99174.30;78187;1299;3053225;-65
2023/10/02 02:12:07;;;;;;;8.50;3.10;;;;;;;13.66;80.50;99183.80;79345;1299;3011926;-66
2023/10/02 02:14:52;;;;;;;8.10;2.60;;;;;;;13.59;80.78;99180.08;77987;1297;3053487;-66
2023/10/02 02:17:26;;;;;;;8.20;3.20;;;;;;;13.40;81.61;99181.39;78037;1299;3051984;-62
2023/10/02 02:19:59;;;;;;;9.00;2.50;;;;;;;13.33;82.14;99189.61;79208;1299;3013927;-66
2023/10/02 02:22:31;;;;;;;6.10;2.40;;;;;;;13.84;80.48;99179.71;78089;1294;3050745;-63
2023/10/02 02:24:58;;;;;;;8.10;2.90;;;;;;;13.96;79.14;99185.48;79265;1298;3011952;-67
2023/10/02 02:27:27;;;;;;;9.70;3.00;;;;;;;13.63;80.25;99187.88;77987;1299;3028654;-63
2023/10/02 02:29:56;;;;;;;5.30;2.30;;;;;;;13.60;80.64;99180.73;79402;1298;3014830;-67
2023/10/02 02:32:52;;;;;;;8.20;2.30;;;;;;;13.50;80.70;99179.27;78767;1299;3011875;-63
2023/10/02 02:35:21;;;;;;;5.50;2.70;;;;;;;13.16;82.37;99185.50;78043;1299;3052015;-66
2023/10/02 02:37:50;;;;;;;7.20;2.50;;;;;;;13.23;82.76;99184.05;79335;1299;3013912;-71
2023/10/02 02:40:22;;;;;;;5.20;2.10;;;;;;;13.72;80.84;99174.35;78810;1297;3013162;-67
2023/10/02 02:42:50;;;;;;;9.50;3.00;;;;;;;13.94;79.02;99181.06;79225;1294;3014114;-68
2023/10/02 02:45:28;;;;;;;8.30;3.00;;;;;;;13.75;79.41;99173.27;78150;1299;3058273;-64
2023/10/02 02:48:10;;;;;;;6.00;2.80;;;;;;;13.57;80.06;99176.61;78092;1298;3049219;-64
2023/10/02 02:50:41;;;;;;;10.40;3.60;;;;;;;13.34;80.71;99171.66;78141;1297;3053453;-69
2023/10/02 02:53:21;;;;;;;7.70;2.60;;;;;;;13.19;81.63;99174.50;79540;1294;3011644;-66
2023/10/02 02:56:24;;;;;;;7.40;2.70;;;;;;;13.45;81.21;99173.81;78097;1299;3052293;-65
2023/10/02 02:58:55;;;;;;;8.00;3.40;;;;;;;13.70;79.47;99171.20;77952;1300;3052316;-64
2023/10/02 03:01:22;;;;;;;12.50;2.90;;;;;;;13.74;78.82;99170.83;79256;1297;3012062;-65
2023/10/02 03:03:55;;;;;;;8.10;3.00;;;;;;;13.52;79.61;99169.91;77975;1298;3029229;-68
2023/10/02 03:06:22;;;;;;;9.00;2.70;;;;;;;13.26;80.49;99169.59;79303;1294;3013168;-70
2023/10/02 03:08:51;;;;;;;6.40;2.40;;;;;;;13.20;80.84;99175.14;77971;1297;3049300;-66
2023/10/02 03:11:22;;;;;;;7.00;2.20;;;;;;;13.11;81.52;99175.46;79345;1297;3014892;-68
2023/10/02 03:14:12;;;;;;;4.20;1.90;;;;;;;13.63;79.44;99176.28;78113;1300;3052906;-66
2023/10/02 03:16:39;;;;;;;6.10;2.60;;;;;;;13.76;78.50;99172.48;79394;1299;3012972;-66
2023/10/02 03:19:08;;;;;;;5.60;2.20;;;;;;;13.65;78.41;99174.19;78877;1299;3012892;-63
2023/10/02 03:21:37;;;;;;;7.40;2.40;;;;;;;13.54;78.88;99175.36;79265;1298;3018701;-67
2023/10/02 03:24:04;;;;;;;7.20;2.40;;;;;;;13.41;79.25;99178.38;79253;1294;3011847;-67
2023/10/02 03:29:05;;;;;;;7.70;2.30;;;;;;;13.21;80.46;99180.17;79268;1296;3011801;-73
2023/10/02 03:31:36;;;;;;;11.20;2.80;;;;;;;13.60;79.16;99181.27;78132;1297;3052995;-67
2023/10/02 03:39:59;;;;;;;8.30;2.70;;;;;;;13.64;77.93;99177.30;78072;1300;3052178;-69
2023/10/02 03:42:31;;;;;;;7.90;3.00;;;;;;;13.39;78.83;99178.09;78075;1299;3055751;-65
2023/10/02 03:44:59;;;;;;;6.40;3.00;;;;;;;13.28;79.45;99185.25;79451;1295;3012055;-70
2023/10/02 03:47:33;;;;;;;9.40;2.40;;;;;;;13.27;79.56;99191.30;78106;1298;3053417;-63
2023/10/02 03:50:03;;;;;;;9.80;3.10;;;;;;;13.77;77.89;99196.52;79367;1295;3011516;-63
2023/10/02 03:52:32;;;;;;;6.50;2.50;;;;;;;13.92;76.40;99199.34;78098;1300;3052740;-67
2023/10/02 03:55:14;;;;;;;9.00;2.80;;;;;;;13.82;76.41;99200.05;79201;1295;3013815;-70
2023/10/02 03:57:52;;;;;;;7.60;2.20;;;;;;;13.65;77.10;99209.25;78129;1299;3051514;-66
2023/10/02 04:02:54;;;;;;;7.60;2.70;;;;;;;13.41;78.44;99202.27;79356;1294;3013429;-65
2023/10/02 04:05:32;;;;;;;11.90;3.20;;;;;;;13.31;78.63;99215.46;78024;1298;3052368;-68
2023/10/02 04:10:56;;;;;;;14.90;2.90;;;;;;;13.93;76.62;99207.21;78011;1299;3053738;-65
2023/10/02 04:13:27;;;;;;;6.30;1.80;;;;;;;14.09;75.35;99213.36;78182;1300;3052621;-68
2023/10/02 04:18:46;;;;;;;8.30;2.40;;;;;;;13.86;75.72;99206.77;78105;1299;3052565;-67
2023/10/02 04:21:13;;;;;;;8.70;2.90;;;;;;;13.66;76.52;99212.27;79191;1299;3013690;-65
2023/10/02 04:23:45;;;;;;;7.40;2.10;;;;;;;13.62;76.52;99211.75;78106;1299;3025747;-64
2023/10/02 04:26:19;;;;;;;5.80;2.40;;;;;;;13.42;77.64;99220.14;79445;1299;3011706;-70
2023/10/02 04:29:14;;;;;;;9.00;1.90;;;;;;;13.38;77.82;99214.77;78131;1300;3049995;-67
2023/10/02 04:32:04;;;;;;;9.30;2.70;;;;;;;13.90;76.08;99221.55;78099;1300;3053257;-64
2023/10/02 04:34:36;;;;;;;7.90;2.90;;;;;;;14.09;74.77;99229.58;78123;1297;3052625;-67
2023/10/02 04:37:22;;;;;;;5.80;2.30;;;;;;;13.95;75.07;99218.91;79211;1300;3013284;-66
2023/10/02 04:40:00;;;;;;;8.10;2.60;;;;;;;13.72;75.84;99223.81;78090;1300;3051559;-64
2023/10/02 04:45:21;;;;;;;9.80;2.90;;;;;;;13.47;77.06;99226.05;77839;1299;3050345;-64
2023/10/02 04:47:48;;;;;;;7.10;2.30;;;;;;;13.34;77.40;99232.16;79171;1296;3011497;-71
2023/10/02 04:53:17;;;;;;;3.70;1.80;;;;;;;13.77;76.23;99233.84;79311;1298;3011295;-70
2023/10/02 04:55:48;;;;;;;8.20;2.60;;;;;;;13.86;75.58;99234.73;78124;1299;3054264;-64
2023/10/02 04:58:27;;;;;;;11.60;3.00;;;;;;;13.95;75.09;99236.09;79290;1297;3011670;-67
2023/10/02 05:03:49;;;;;;;6.10;2.50;;;;;;;13.53;76.90;99251.66;78128;1299;3056842;-63
2023/10/02 05:11:51;;;;;;;8.50;2.30;;;;;;;13.38;78.21;99257.52;79533;1298;3011542;-62
2023/10/02 05:15:07;;;;;;;10.80;2.30;;;;;;;13.91;76.14;99254.02;78088;1300;3052576;-71
2023/10/02 05:17:17;;;;;;;6.70;2.60;;;;;;;14.18;74.60;99257.57;78111;1300;3054542;-67
2023/10/02 05:19:56;;;;;;;7.20;2.50;;;;;;;14.01;75.43;99267.16;79242;1296;3011905;-66
2023/10/02 05:22:25;;;;;;;7.90;2.50;;;;;;;13.90;75.56;99262.91;78199;1297;3052492;-71
2023/10/02 05:24:58;;;;;;;6.60;2.50;;;;;;;13.84;76.21;99266.17;79509;1297;3012896;-67
2023/10/02 05:27:30;;;;;;;7.70;2.70;;;;;;;13.80;76.40;99271.60;78123;1297;3053411;-63
2023/10/02 05:30:05;;;;;;;10.50;2.70;;;;;;;13.58;77.37;99268.17;79203;1296;3011582;-66
2023/10/02 05:32:35;;;;;;;15.10;2.80;;;;;;;13.61;77.37;99277.44;78128;1300;3053508;-66
2023/10/02 05:35:06;;;;;;;10.80;2.80;;;;;;;14.11;76.04;99275.04;79531;1294;3011914;-71
2023/10/02 05:37:45;;;;;;;8.30;2.90;;;;;;;14.31;74.84;99276.25;78408;1297;3068087;-70
2023/10/02 05:48:15;;;;;;;10.50;2.80;;;;;;;13.99;76.04;99274.77;78144;1297;3054152;-66
2023/10/02 05:50:48;;;;;;;10.90;3.20;;;;;;;13.96;76.07;99286.09;79327;1298;3012031;-65
2023/10/02 05:53:17;;;;;;;9.00;2.50;;;;;;;13.91;76.18;99291.70;78055;1300;3054153;-69
2023/10/02 05:58:33;;;;;;;6.90;2.40;;;;;;;14.49;74.57;99287.19;78047;1300;3053204;-66
2023/10/02 06:01:04;;;;;;;8.30;2.80;;;;;;;14.84;72.89;99285.99;79665;1297;3013096;-68
2023/10/02 06:03:34;;;;;;;8.80;2.50;;;;;;;14.79;72.75;99293.95;78403;1300;3049494;-63
2023/10/02 06:06:15;;;;;;;10.10;3.20;;;;;;;14.75;73.09;99293.29;79442;1296;3011891;-67
2023/10/02 06:09:00;;;;;;;12.60;2.80;;;;;;;14.64;73.24;99295.52;78134;1299;3050021;-68
2023/10/02 06:11:33;;;;;;;9.30;3.20;;;;;;;14.63;73.44;99298.07;78041;1300;3052135;-69
2023/10/02 06:14:10;;;;;;;9.80;2.80;;;;;;;14.49;73.73;99288.75;79300;1300;3011595;-66
2023/10/02 06:16:42;;;;;;;10.50;3.00;;;;;;;14.52;73.85;99296.48;78188;1297;3069596;-70
2023/10/02 06:19:15;;;;;;;11.30;3.20;;;;;;;14.52;74.07;99294.18;79252;1297;3011587;-71
2023/10/02 06:22:04;;;;;;;10.10;2.30;;;;;;;14.66;73.58;99294.70;78058;1297;3057377;-66
2023/10/02 06:24:32;;;;;;;7.00;2.80;;;;;;;15.40;70.96;99290.29;78292;1297;3048775;-70
2023/10/02 06:27:02;;;;;;;11.30;2.60;;;;;;;15.78;69.01;99287.06;79517;1300;3012891;-71
2023/10/02 06:29:35;;;;;;;7.40;2.60;;;;;;;15.66;68.78;99299.02;78089;1300;3052975;-66
2023/10/02 06:32:11;;;;;;;7.90;3.10;;;;;;;15.37;69.44;99292.97;79396;1300;3011627;-69
2023/10/02 06:34:39;;;;;;;9.70;2.70;;;;;;;15.37;69.44;99293.14;78082;1298;3069299;-67
2023/10/02 06:37:12;;;;;;;8.50;2.40;;;;;;;15.30;69.17;99295.86;79238;1298;3019004;-65
2023/10/02 06:39:42;;;;;;;10.70;2.70;;;;;;;15.13;69.51;99293.38;78297;1298;3049466;-70
2023/10/02 06:42:10;;;;;;;13.80;3.10;;;;;;;15.08;69.82;99297.95;79536;1297;3013231;-68
2023/10/02 06:44:54;;;;;;;9.20;2.60;;;;;;;15.03;70.07;99314.06;78821;1298;3013426;-64
2023/10/02 06:47:28;;;;;;;16.40;2.90;;;;;;;14.97;70.40;99313.55;78055;1300;3053121;-68
2023/10/02 06:50:21;;;;;;;10.40;2.70;;;;;;;15.00;70.45;99312.22;79175;1300;3013431;-62
2023/10/02 06:52:52;;;;;;;7.80;2.80;;;;;;;14.97;70.17;99319.52;78294;1298;3052884;-67
2023/10/02 06:55:18;;;;;;;10.30;2.30;;;;;;;14.90;70.23;99327.69;79675;1297;3013229;-65
2023/10/02 06:57:51;;;;;;;10.70;2.90;;;;;;;14.98;70.01;99317.48;79227;1296;3013151;-66
2023/10/02 07:00:22;;;;;;;14.00;3.00;;;;;;;15.19;69.13;99316.01;79303;1300;3011862;-66
2023/10/02 07:03:03;;;;;;;8.30;2.80;;;;;;;15.24;68.32;99314.98;78127;1297;3048278;-66
2023/10/02 07:05:33;;;;;;;8.90;2.80;;;;;;;15.31;67.96;99326.80;77962;1297;3053590;-65
2023/10/02 07:08:17;;;;;;;9.20;2.50;;;;;;;15.35;67.86;99318.53;79161;1300;3011564;-68
2023/10/02 07:10:46;;;;;;;8.60;2.30;;;;;;;15.40;67.27;99329.06;78266;1300;3052552;-63
2023/10/02 07:13:21;;;;;;;6.80;2.20;;;;;;;15.49;66.71;99322.85;79633;1297;3014269;-64
2023/10/02 07:15:57;;;;;;;10.90;2.30;;;;;;;15.57;66.16;99326.22;78238;1300;3051020;-65
2023/10/02 07:18:45;;;;;;;14.20;2.80;;;;;;;15.68;65.66;99329.98;78484;1298;3055616;-64
2023/10/02 07:21:16;;;;;;;6.70;2.40;;;;;;;15.75;64.94;99333.73;78002;1300;3050007;-65
2023/10/02 07:23:45;;;;;;;9.90;3.70;;;;;;;15.72;64.67;99333.27;79263;1297;3011938;-69
2023/10/02 07:26:14;;;;;;;17.60;3.00;;;;;;;15.81;64.43;99329.59;78188;1300;3049589;-65
2023/10/02 07:28:50;;;;;;;9.80;2.80;;;;;;;15.72;63.98;99339.98;79509;1300;3013275;-66
2023/10/02 07:31:21;;;;;;;8.80;2.60;;;;;;;15.82;63.75;99347.33;78457;1300;3052836;-66
2023/10/02 07:33:48;;;;;;;7.20;2.40;;;;;;;15.83;62.98;99343.73;79505;1296;3011671;-67
2023/10/02 07:36:17;;;;;;;11.70;2.20;;;;;;;15.87;62.76;99347.38;78825;1298;3013243;-67
2023/10/02 07:38:46;;;;;;;15.20;2.60;;;;;;;15.71;62.50;99353.34;79358;1298;3021104;-65
2023/10/02 07:41:31;;;;;;;9.40;2.60;;;;;;;15.72;62.66;99347.96;79232;1297;3013077;-61
2023/10/02 07:44:08;;;;;;;8.30;3.20;;;;;;;15.64;62.52;99348.13;78082;1300;3051785;-66
2023/10/02 07:46:36;;;;;;;13.00;2.40;;;;;;;15.47;62.01;99355.14;78231;1299;3053949;-68
2023/10/02 07:49:04;;;;;;;11.40;2.40;;;;;;;15.35;61.87;99354.20;79613;1300;3018767;-66
2023/10/02 07:51:36;;;;;;;9.70;2.60;;;;;;;15.38;62.00;99344.61;79544;1297;3013132;-65
2023/10/02 07:54:06;;;;;;;7.30;2.50;;;;;;;15.51;61.86;99347.95;78189;1300;3056731;-62
2023/10/02 07:56:33;;;;;;;12.10;2.50;;;;;;;15.42;61.66;99361.02;79717;1296;3011628;-67
2023/10/02 07:59:03;;;;;;;12.10;2.50;;;;;;;15.47;61.43;99355.66;78931;1298;3011583;-65
2023/10/02 08:01:32;;;;;;;10.40;3.10;;;;;;;15.40;61.17;99365.64;79549;1300;3013550;-64
2023/10/02 08:04:01;;;;;;;9.40;2.80;;;;;;;15.43;61.49;99367.48;79119;1299;3011614;-73
2023/10/02 08:11:51;;;;;;;16.80;3.00;;;;;;;15.99;60.36;99369.02;78351;1297;3058047;-68
2023/10/02 08:17:27;;;;;;;14.50;2.90;;;;;;;16.24;59.48;99367.64;78402;1296;3053817;-67
2023/10/02 08:19:56;;;;;;;16.00;3.50;;;;;;;16.36;58.60;99364.48;78288;1300;3049963;-66
2023/10/02 08:22:35;;;;;;;16.10;3.10;;;;;;;16.41;58.31;99364.38;79683;1300;3013434;-66
2023/10/02 08:25:13;;;;;;;7.30;2.90;;;;;;;16.68;57.53;99356.54;78282;1298;3068158;-67
2023/10/02 08:27:46;;;;;;;10.10;3.30;;;;;;;16.79;55.87;99364.30;78186;1297;3051064;-69
2023/10/02 08:30:27;;;;;;;11.70;3.10;;;;;;;16.93;55.70;99360.93;79438;1297;3011788;-71
2023/10/02 08:33:18;;;;;;;13.60;3.10;;;;;;;17.11;54.35;99358.98;78345;1300;3050536;-65
2023/10/02 08:35:46;;;;;;;8.80;2.60;;;;;;;17.18;53.51;99352.90;78111;1300;3053424;-71
2023/10/02 08:38:21;;;;;;;12.30;2.80;;;;;;;17.23;52.93;99355.98;79386;1298;3018412;-66
2023/10/02 08:41:00;;;;;;;16.10;3.00;;;;;;;17.12;52.20;99364.23;78359;1300;3053146;-65
2023/10/02 08:43:29;;;;;;;7.70;2.20;;;;;;;17.05;52.29;99372.63;78346;1300;3068368;-68
2023/10/02 08:45:59;;;;;;;17.20;2.90;;;;;;;17.10;51.79;99373.75;79568;1298;3013106;-65
2023/10/02 08:48:31;;;;;;;15.50;3.00;;;;;;;17.27;51.06;99366.23;78247;1296;3026733;-70
2023/10/02 08:50:58;;;;;;;13.40;2.80;;;;;;;17.33;50.61;99370.48;79591;1296;3013196;-69
2023/10/02 08:53:26;;;;;;;6.90;2.00;;;;;;;17.50;50.28;99368.40;78433;1300;3053551;-67
2023/10/02 08:56:05;;;;;;;9.60;2.60;;;;;;;17.52;49.60;99370.38;79600;1300;3013803;-73
2023/10/02 08:58:35;;;;;;;13.80;2.10;;;;;;;17.35;49.69;99378.60;78277;1296;3053767;-67
2023/10/02 09:03:42;;;;;;;13.20;2.80;;;;;;;17.36;49.31;99373.55;78348;1296;3052066;-68
2023/10/02 09:11:44;;;;;;;12.30;2.40;;;;;;;17.24;48.28;99378.14;78458;1297;3050003;-73
2023/10/02 09:14:39;;;;;;;20.10;2.80;;;;;;;17.28;47.84;99380.15;79623;1297;3013548;-64
2023/10/02 09:20:00;;;;;;;10.10;2.50;;;;;;;17.30;46.73;99363.70;78981;1300;3011867;-66
2023/10/02 09:22:28;;;;;;;15.40;2.60;;;;;;;17.46;46.05;99371.95;78335;1300;3053419;-64
2023/10/02 09:25:08;;;;;;;8.20;2.40;;;;;;;17.36;45.44;99359.75;79515;1296;3012931;-67
2023/10/02 09:27:41;;;;;;;21.10;3.40;;;;;;;17.29;45.84;99376.91;78438;1298;3058173;-62
2023/10/02 09:30:36;;;;;;;14.60;2.40;;;;;;;17.44;45.45;99374.46;79386;1298;3011489;-69
2023/10/02 09:33:22;;;;;;;12.90;2.60;;;;;;;17.52;45.36;99376.77;78142;1300;3053835;-65
2023/10/02 09:35:54;;;;;;;14.70;2.60;;;;;;;17.80;45.04;99360.52;78379;1300;3050791;-68
2023/10/02 09:38:23;;;;;;;10.30;3.00;;;;;;;18.06;44.44;99363.52;79554;1300;3013163;-68
2023/10/02 09:43:33;;;;;;;17.20;3.20;;;;;;;18.11;43.30;99366.25;78954;1297;3068336;-67
2023/10/02 09:46:21;;;;;;;12.40;2.50;;;;;;;18.00;42.79;99358.04;80175;1296;3013506;-66
2023/10/02 09:49:09;;;;;;;13.40;3.10;;;;;;;18.11;42.61;99360.90;78932;1300;3057136;-66
2023/10/02 09:52:07;;;;;;;11.90;2.90;;;;;;;18.24;42.46;99355.99;78836;1300;3049393;-66
2023/10/02 09:54:40;;;;;;;16.00;3.30;;;;;;;18.24;41.97;99359.66;78549;1298;3053561;-68
2023/10/02 09:57:13;;;;;;;10.30;3.00;;;;;;;18.32;41.85;99360.00;79466;1300;3013095;-67
2023/10/02 09:59:48;;;;;;;6.50;2.50;;;;;;;18.34;41.58;99356.59;78349;1300;3054109;-66
2023/10/02 10:03:06;;;;;;;8.40;2.90;;;;;;;18.45;41.57;99357.50;79519;1300;3012870;-68
2023/10/02 10:08:29;;;;;;;7.90;2.80;;;;;;;18.65;40.57;99360.73;79098;1300;3012903;-70
2023/10/02 10:10:47;;;;;;;16.70;3.40;;;;;;;18.67;40.87;99365.70;78386;1297;3053245;-66
2023/10/02 10:13:50;;;;;;;9.40;2.80;;;;;;;18.64;40.61;99372.23;78204;1300;3057637;-68
2023/10/02 10:16:18;;;;;;;16.50;3.40;;;;;;;18.57;40.16;99362.08;78265;1298;3049335;-66
2023/10/02 10:19:22;;;;;;;26.30;3.30;;;;;;;18.87;40.16;99356.18;79539;1300;3012857;-69
2023/10/02 10:22:04;;;;;;;20.80;3.20;;;;;;;18.90;39.40;99365.09;78633;1300;3052198;-68
2023/10/02 10:24:51;;;;;;;13.30;3.30;;;;;;;18.66;39.46;99374.18;79573;1297;3053288;-67
2023/10/02 10:27:37;;;;;;;13.60;3.60;;;;;;;18.60;39.20;99371.77;78403;1296;3070444;-71
2023/10/02 10:30:33;;;;;;;11.70;2.60;;;;;;;18.72;39.31;99358.73;78290;1297;3052575;-65
2023/10/02 10:33:13;;;;;;;10.60;2.80;;;;;;;18.77;39.13;99361.73;78358;1297;3056352;-67
2023/10/02 10:35:52;;;;;;;11.80;3.10;;;;;;;18.71;38.92;99360.75;78323;1300;3049447;-71
2023/10/02 10:38:31;;;;;;;12.30;3.50;;;;;;;18.88;38.80;99353.59;75184;1297;6111634;-70
2023/10/02 10:41:02;;;;;;;11.20;2.90;;;;;;;19.12;38.60;99356.80;78265;1297;3051906;-69
2023/10/02 10:43:44;;;;;;;13.10;3.40;;;;;;;19.27;38.51;99354.05;79547;1299;3011590;-72
2023/10/02 10:46:28;;;;;;;10.80;3.20;;;;;;;19.39;38.02;99359.30;78513;1300;3068787;-70
2023/10/02 10:49:07;;;;;;;18.90;3.70;;;;;;;19.30;38.27;99360.86;78378;1300;3051145;-70
2023/10/02 10:51:39;;;;;;;21.00;3.90;;;;;;;19.41;38.09;99359.30;78213;1300;3057992;-66
2023/10/02 10:54:13;;;;;;;14.70;3.50;;;;;;;19.61;37.93;99359.27;79704;1296;3011473;-72
2023/10/02 10:56:44;;;;;;;10.50;3.10;;;;;;;19.50;37.24;99363.05;78513;1298;3054339;-69
2023/10/02 10:59:35;;;;;;;12.10;3.60;;;;;;;19.36;36.85;99354.99;79622;1300;3011496;-70
2023/10/02 11:02:18;;;;;;;10.80;3.50;;;;;;;19.31;36.85;99370.17;78598;1300;3051697;-65
2023/10/02 11:04:47;;;;;;;14.50;3.40;;;;;;;19.55;36.82;99358.42;78375;1300;3051908;-73
2023/10/02 11:07:21;;;;;;;15.00;3.00;;;;;;;19.88;36.80;99353.04;79952;1297;3013418;-72
2023/10/02 11:10:41;;;;;;;15.10;4.00;;;;;;;19.80;36.26;99365.92;78193;1297;3055946;-67
2023/10/02 11:12:56;;;;;;;8.60;3.00;;;;;;;19.49;36.20;99366.48;78206;1297;3048651;-68
2023/10/02 11:15:45;;;;;;;11.20;3.90;;;;;;;19.27;36.38;99358.34;78422;1300;3053556;-67
2023/10/02 11:18:23;;;;;;;15.60;3.10;;;;;;;19.11;36.44;99373.39;78232;1300;3050343;-69
2023/10/02 11:21:00;;;;;;;11.20;3.10;;;;;;;19.08;36.64;99363.24;78254;1300;3052817;-68
2023/10/02 11:23:37;;;;;;;9.80;2.70;;;;;;;19.22;36.32;99361.66;78250;1301;3053091;-70
2023/10/02 11:26:15;;;;;;;11.40;3.10;;;;;;;19.31;36.51;99359.38;78533;1300;3068746;-68
2023/10/02 11:28:49;;;;;;;13.10;3.30;;;;;;;19.65;36.16;99359.20;78296;1300;3052474;-72
2023/10/02 11:31:36;;;;;;;12.90;2.80;;;;;;;19.53;36.04;99366.84;79756;1300;3011229;-72
2023/10/02 11:34:04;;;;;;;12.10;3.40;;;;;;;19.48;36.25;99365.73;78351;1300;3050019;-65
2023/10/02 11:36:37;;;;;;;13.00;3.50;;;;;;;19.55;36.27;99360.17;79574;1297;3013397;-70
2023/10/02 11:39:19;;;;;;;11.30;3.10;;;;;;;19.68;36.52;99358.57;78470;1300;3050399;-66
2023/10/02 11:41:47;;;;;;;11.50;3.20;;;;;;;19.55;36.26;99360.59;78412;1300;3052677;-71
2023/10/02 11:44:15;;;;;;;11.70;3.00;;;;;;;19.44;36.69;99374.23;79671;1300;3012848;-67
2023/10/02 11:46:43;;;;;;;12.60;3.60;;;;;;;19.40;36.59;99360.05;79460;1298;3011687;-68
2023/10/02 11:49:11;;;;;;;13.70;3.30;;;;;;;19.45;36.32;99366.50;78407;1300;3048652;-67
2023/10/02 11:51:37;;;;;;;11.60;3.70;;;;;;;19.44;36.53;99362.73;79786;1299;3020992;-68
2023/10/02 11:54:09;;;;;;;8.50;2.80;;;;;;;19.48;36.80;99371.70;79577;1298;3011802;-67
2023/10/02 11:56:38;;;;;;;12.70;3.20;;;;;;;19.34;37.34;99368.48;78316;1297;3053303;-71
2023/10/02 11:59:06;;;;;;;17.40;3.60;;;;;;;19.54;37.21;99372.94;79480;1300;3012897;-65
2023/10/02 12:01:37;;;;;;;12.30;2.90;;;;;;;19.62;37.07;99366.21;79142;1300;3011913;-69
2023/10/02 12:04:04;;;;;;;14.40;3.50;;;;;;;19.81;36.66;99365.84;79605;1297;3013041;-69
2023/10/02 12:06:33;;;;;;;13.90;3.60;;;;;;;19.70;36.17;99375.21;79198;1298;3011609;-71
2023/10/02 12:09:01;;;;;;;12.90;3.60;;;;;;;19.73;36.13;99363.90;79679;1301;3018075;-71
2023/10/02 12:11:33;;;;;;;15.80;3.20;;;;;;;19.63;35.89;99370.75;79073;1297;3011509;-72
2023/10/02 12:14:02;;;;;;;9.30;2.90;;;;;;;19.58;35.93;99374.87;79664;1300;3013185;-67
2023/10/02 12:16:31;;;;;;;9.40;2.90;;;;;;;19.41;35.81;99372.45;79013;1298;3013697;-66
2023/10/02 12:18:58;;;;;;;10.20;3.20;;;;;;;19.36;35.92;99381.80;79551;1300;3011929;-65
2023/10/02 12:21:24;;;;;;;14.40;3.40;;;;;;;19.30;36.11;99384.14;79501;1300;3011807;-67
2023/10/02 12:23:52;;;;;;;15.60;3.80;;;;;;;19.32;36.07;99374.73;78300;1297;3025835;-66
2023/10/02 12:26:20;;;;;;;8.30;2.90;;;;;;;19.47;36.05;99387.41;79438;1300;3013320;-68
2023/10/02 12:28:49;;;;;;;14.50;3.30;;;;;;;19.41;35.93;99375.42;79598;1297;3013696;-70
2023/10/02 12:31:19;;;;;;;13.20;3.40;;;;;;;19.49;36.28;99383.33;78439;1298;3052818;-66
2023/10/02 12:33:48;;;;;;;10.60;3.00;;;;;;;19.60;36.08;99385.77;79515;1296;3013512;-66
2023/10/02 12:36:22;;;;;;;16.70;3.50;;;;;;;19.56;35.73;99384.38;78204;1300;3026529;-68
2023/10/02 12:38:52;;;;;;;11.70;4.40;;;;;;;19.40;35.25;99389.36;79574;1298;3013216;-71
2023/10/02 12:41:21;;;;;;;11.10;3.80;;;;;;;19.57;35.14;99386.80;78299;1300;3049916;-67
2023/10/02 12:43:56;;;;;;;8.30;3.50;;;;;;;19.51;35.22;99387.90;79585;1300;3013298;-71
2023/10/02 12:46:24;;;;;;;17.10;3.50;;;;;;;19.50;35.41;99386.13;78493;1298;3052894;-69
2023/10/02 12:48:51;;;;;;;9.80;3.40;;;;;;;19.47;35.86;99393.33;79563;1300;3013024;-66
2023/10/02 12:51:17;;;;;;;13.70;4.00;;;;;;;19.30;35.78;99396.95;79593;1300;3011624;-70
2023/10/02 12:53:45;;;;;;;12.20;3.30;;;;;;;19.06;36.40;99398.57;78198;1298;3055279;-67
2023/10/02 12:56:22;;;;;;;9.70;3.00;;;;;;;18.88;36.97;99398.45;79581;1297;3019090;-68